sensor_id;sensor_type;location;lat;lon;timestamp;temperature;humidity
15257;DHT22;7731;50.720;6.912;2022-12-15T00:01:13;-4.60;99.90
15257;DHT22;7731;50.720;6.912;2022-12-15T00:03:59;-4.60;99.90
15257;DHT22;7731;50.720;6.912;2022-12-15T00:06:41;-4.60;99.90
15257;DHT22;7731;50.720;6.912;2022-12-15T00:09:24;-4.60;99.90
15257;DHT22;7731;50.720;6.912;2022-12-15T00:12:07;-4.60;99.90
15257;DHT22;7731;50.720;6.912;2022-12-15T00:14:49;-4.60;99.90
15257;DHT22;7731;50.720;6.912;2022-12-15T00:17:32;-4.60;99.90
15257;DHT22;7731;50.720;6.912;2022-12-15T00:20:17;-4.70;99.90
15257;DHT22;7731;50.720;6.912;2022-12-15T00:23:06;-4.70;99.90
15257;DHT22;7731;50.720;6.912;2022-12-15T00:25:49;-4.70;99.90
15257;DHT22;7731;50.720;6.912;2022-12-15T00:28:32;-4.70;99.90
15257;DHT22;7731;50.720;6.912;2022-12-15T00:31:14;-4.70;99.90
15257;DHT22;7731;50.720;6.912;2022-12-15T00:33:57;-4.70;99.90
15257;DHT22;7731;50.720;6.912;2022-12-15T00:36:42;-4.70;99.90
15257;DHT22;7731;50.720;6.912;2022-12-15T00:39:25;-4.70;99.90
15257;DHT22;7731;50.720;6.912;2022-12-15T00:41:55;-4.70;99.90
15257;DHT22;7731;50.720;6.912;2022-12-15T00:44:25;-4.60;99.90
15257;DHT22;7731;50.720;6.912;2022-12-15T00:46:55;-4.70;99.90
15257;DHT22;7731;50.720;6.912;2022-12-15T00:49:24;-4.70;99.90
15257;DHT22;7731;50.720;6.912;2022-12-15T00:52:11;-4.80;99.90
15257;DHT22;7731;50.720;6.912;2022-12-15T00:54:55;-4.90;99.90
15257;DHT22;7731;50.720;6.912;2022-12-15T00:57:38;-4.90;99.90
15257;DHT22;7731;50.720;6.912;2022-12-15T01:00:22;-4.90;99.90
15257;DHT22;7731;50.720;6.912;2022-12-15T01:03:10;-4.90;99.90
15257;DHT22;7731;50.720;6.912;2022-12-15T01:05:54;-5.00;99.90
15257;DHT22;7731;50.720;6.912;2022-12-15T01:08:39;-5.00;99.90
15257;DHT22;7731;50.720;6.912;2022-12-15T01:11:26;-5.00;99.90
15257;DHT22;7731;50.720;6.912;2022-12-15T01:14:09;-5.00;99.90
15257;DHT22;7731;50.720;6.912;2022-12-15T01:16:51;-5.20;99.90
15257;DHT22;7731;50.720;6.912;2022-12-15T01:19:34;-5.20;99.90
15257;DHT22;7731;50.720;6.912;2022-12-15T01:22:17;-5.30;99.90
15257;DHT22;7731;50.720;6.912;2022-12-15T01:24:49;-5.30;99.90
15257;DHT22;7731;50.720;6.912;2022-12-15T01:27:22;-5.30;99.90
15257;DHT22;7731;50.720;6.912;2022-12-15T01:29:52;-5.30;99.90
15257;DHT22;7731;50.720;6.912;2022-12-15T01:32:22;-5.40;99.90
15257;DHT22;7731;50.720;6.912;2022-12-15T01:34:53;-5.30;99.90
15257;DHT22;7731;50.720;6.912;2022-12-15T01:37:26;-5.40;99.90
15257;DHT22;7731;50.720;6.912;2022-12-15T01:39:59;-5.40;99.90
15257;DHT22;7731;50.720;6.912;2022-12-15T01:42:43;-5.40;99.90
15257;DHT22;7731;50.720;6.912;2022-12-15T01:48:42;-5.60;99.90
15257;DHT22;7731;50.720;6.912;2022-12-15T01:51:20;-5.60;99.90
15257;DHT22;7731;50.720;6.912;2022-12-15T01:53:58;-5.60;99.90
15257;DHT22;7731;50.720;6.912;2022-12-15T01:56:36;-5.70;99.90
15257;DHT22;7731;50.720;6.912;2022-12-15T01:59:12;-5.70;99.90
15257;DHT22;7731;50.720;6.912;2022-12-15T02:01:46;-5.70;99.90
15257;DHT22;7731;50.720;6.912;2022-12-15T02:04:19;-5.70;99.90
15257;DHT22;7731;50.720;6.912;2022-12-15T02:06:51;-5.70;99.90
15257;DHT22;7731;50.720;6.912;2022-12-15T02:09:22;-5.70;99.90
15257;DHT22;7731;50.720;6.912;2022-12-15T02:12:02;-5.70;99.90
15257;DHT22;7731;50.720;6.912;2022-12-15T02:15:01;-5.70;99.90
15257;DHT22;7731;50.720;6.912;2022-12-15T02:17:46;-5.80;99.90
15257;DHT22;7731;50.720;6.912;2022-12-15T02:20:43;-5.80;99.90
15257;DHT22;7731;50.720;6.912;2022-12-15T02:23:55;-5.80;99.90
15257;DHT22;7731;50.720;6.912;2022-12-15T02:27:32;-5.80;99.90
15257;DHT22;7731;50.720;6.912;2022-12-15T02:30:34;-5.90;99.90
15257;DHT22;7731;50.720;6.912;2022-12-15T02:33:14;-5.90;99.90
15257;DHT22;7731;50.720;6.912;2022-12-15T02:35:55;-6.00;99.90
15257;DHT22;7731;50.720;6.912;2022-12-15T02:38:30;-5.90;99.90
15257;DHT22;7731;50.720;6.912;2022-12-15T02:41:04;-5.90;99.90
15257;DHT22;7731;50.720;6.912;2022-12-15T02:43:58;-5.90;99.90
15257;DHT22;7731;50.720;6.912;2022-12-15T02:46:35;-5.90;99.90
15257;DHT22;7731;50.720;6.912;2022-12-15T02:49:21;-5.90;99.90
15257;DHT22;7731;50.720;6.912;2022-12-15T02:52:31;-5.90;99.90
15257;DHT22;7731;50.720;6.912;2022-12-15T02:55:21;-5.90;99.90
15257;DHT22;7731;50.720;6.912;2022-12-15T02:58:04;-5.90;99.90
15257;DHT22;7731;50.720;6.912;2022-12-15T03:00:48;-6.00;99.90
15257;DHT22;7731;50.720;6.912;2022-12-15T03:03:22;-6.10;99.90
15257;DHT22;7731;50.720;6.912;2022-12-15T03:05:56;-6.10;99.90
15257;DHT22;7731;50.720;6.912;2022-12-15T03:08:28;-6.10;99.90
15257;DHT22;7731;50.720;6.912;2022-12-15T03:11:00;-6.10;99.90
15257;DHT22;7731;50.720;6.912;2022-12-15T03:13:31;-6.20;99.90
15257;DHT22;7731;50.720;6.912;2022-12-15T03:16:04;-6.20;99.90
15257;DHT22;7731;50.720;6.912;2022-12-15T03:18:37;-6.30;99.90
15257;DHT22;7731;50.720;6.912;2022-12-15T03:21:07;-6.20;99.90
15257;DHT22;7731;50.720;6.912;2022-12-15T03:23:37;-6.00;99.90
15257;DHT22;7731;50.720;6.912;2022-12-15T03:26:08;-6.00;99.90
15257;DHT22;7731;50.720;6.912;2022-12-15T03:28:38;-6.10;99.90
15257;DHT22;7731;50.720;6.912;2022-12-15T03:31:11;-6.20;99.90
15257;DHT22;7731;50.720;6.912;2022-12-15T03:33:41;-6.20;99.90
15257;DHT22;7731;50.720;6.912;2022-12-15T03:36:11;-6.20;99.90
15257;DHT22;7731;50.720;6.912;2022-12-15T03:38:41;-6.20;99.90
15257;DHT22;7731;50.720;6.912;2022-12-15T03:41:11;-6.30;99.90
15257;DHT22;7731;50.720;6.912;2022-12-15T03:43:43;-6.30;99.90
15257;DHT22;7731;50.720;6.912;2022-12-15T03:46:18;-6.30;99.90
15257;DHT22;7731;50.720;6.912;2022-12-15T03:48:48;-6.30;99.90
15257;DHT22;7731;50.720;6.912;2022-12-15T03:51:20;-6.30;99.90
15257;DHT22;7731;50.720;6.912;2022-12-15T03:53:51;-6.40;99.90
15257;DHT22;7731;50.720;6.912;2022-12-15T03:56:21;-6.40;99.90
15257;DHT22;7731;50.720;6.912;2022-12-15T03:58:51;-6.40;99.90
15257;DHT22;7731;50.720;6.912;2022-12-15T04:01:27;-6.40;99.90
15257;DHT22;7731;50.720;6.912;2022-12-15T04:03:59;-6.40;99.90
15257;DHT22;7731;50.720;6.912;2022-12-15T04:06:31;-6.20;99.90
15257;DHT22;7731;50.720;6.912;2022-12-15T04:09:03;-6.20;99.90
15257;DHT22;7731;50.720;6.912;2022-12-15T04:11:35;-6.20;99.90
15257;DHT22;7731;50.720;6.912;2022-12-15T04:14:05;-6.20;99.90
15257;DHT22;7731;50.720;6.912;2022-12-15T04:16:38;-6.30;99.90
15257;DHT22;7731;50.720;6.912;2022-12-15T04:19:08;-6.40;99.90
15257;DHT22;7731;50.720;6.912;2022-12-15T04:21:53;-6.50;99.90
15257;DHT22;7731;50.720;6.912;2022-12-15T04:24:24;-6.50;99.90
15257;DHT22;7731;50.720;6.912;2022-12-15T04:27:08;-6.50;99.90
15257;DHT22;7731;50.720;6.912;2022-12-15T04:29:50;-6.60;99.90
15257;DHT22;7731;50.720;6.912;2022-12-15T04:32:35;-6.70;99.90
15257;DHT22;7731;50.720;6.912;2022-12-15T04:35:18;-6.70;99.90
15257;DHT22;7731;50.720;6.912;2022-12-15T04:38:01;-6.70;99.90
15257;DHT22;7731;50.720;6.912;2022-12-15T04:40:43;-6.50;99.90
15257;DHT22;7731;50.720;6.912;2022-12-15T04:43:26;-5.90;99.90
15257;DHT22;7731;50.720;6.912;2022-12-15T04:46:09;-5.80;99.90
15257;DHT22;7731;50.720;6.912;2022-12-15T04:48:54;-6.00;99.90
15257;DHT22;7731;50.720;6.912;2022-12-15T04:51:37;-6.20;99.90
15257;DHT22;7731;50.720;6.912;2022-12-15T04:54:19;-6.30;99.90
15257;DHT22;7731;50.720;6.912;2022-12-15T04:57:02;-6.40;99.90
15257;DHT22;7731;50.720;6.912;2022-12-15T04:59:45;-6.50;99.90
15257;DHT22;7731;50.720;6.912;2022-12-15T05:02:27;-6.60;99.90
15257;DHT22;7731;50.720;6.912;2022-12-15T05:05:12;-6.60;99.90
15257;DHT22;7731;50.720;6.912;2022-12-15T05:07:56;-6.60;99.90
15257;DHT22;7731;50.720;6.912;2022-12-15T05:10:39;-6.70;99.90
15257;DHT22;7731;50.720;6.912;2022-12-15T05:13:24;-6.60;99.90
15257;DHT22;7731;50.720;6.912;2022-12-15T05:16:07;-6.60;99.90
15257;DHT22;7731;50.720;6.912;2022-12-15T05:18:50;-6.70;99.90
15257;DHT22;7731;50.720;6.912;2022-12-15T05:21:35;-6.70;99.90
15257;DHT22;7731;50.720;6.912;2022-12-15T05:24:17;-6.60;99.90
15257;DHT22;7731;50.720;6.912;2022-12-15T05:27:00;-6.60;99.90
15257;DHT22;7731;50.720;6.912;2022-12-15T05:29:42;-6.60;99.90
15257;DHT22;7731;50.720;6.912;2022-12-15T05:32:25;-6.60;99.90
15257;DHT22;7731;50.720;6.912;2022-12-15T05:34:55;-6.50;99.90
15257;DHT22;7731;50.720;6.912;2022-12-15T05:37:29;-6.40;99.90
15257;DHT22;7731;50.720;6.912;2022-12-15T05:39:59;-6.50;99.90
15257;DHT22;7731;50.720;6.912;2022-12-15T05:42:29;-6.70;99.90
15257;DHT22;7731;50.720;6.912;2022-12-15T05:44:59;-6.70;99.90
15257;DHT22;7731;50.720;6.912;2022-12-15T05:47:31;-6.70;99.90
15257;DHT22;7731;50.720;6.912;2022-12-15T05:50:01;-6.70;99.90
15257;DHT22;7731;50.720;6.912;2022-12-15T05:52:34;-6.70;99.90
15257;DHT22;7731;50.720;6.912;2022-12-15T05:55:05;-6.70;99.90
15257;DHT22;7731;50.720;6.912;2022-12-15T05:57:36;-6.70;99.90
15257;DHT22;7731;50.720;6.912;2022-12-15T06:00:07;-6.70;99.90
15257;DHT22;7731;50.720;6.912;2022-12-15T06:02:38;-6.60;99.90
15257;DHT22;7731;50.720;6.912;2022-12-15T06:05:08;-6.70;99.90
15257;DHT22;7731;50.720;6.912;2022-12-15T06:07:41;-6.70;99.90
15257;DHT22;7731;50.720;6.912;2022-12-15T06:10:11;-6.60;99.90
15257;DHT22;7731;50.720;6.912;2022-12-15T06:12:41;-6.60;99.90
15257;DHT22;7731;50.720;6.912;2022-12-15T06:15:13;-6.50;99.90
15257;DHT22;7731;50.720;6.912;2022-12-15T06:17:44;-6.40;99.90
15257;DHT22;7731;50.720;6.912;2022-12-15T06:20:15;-6.40;99.90
15257;DHT22;7731;50.720;6.912;2022-12-15T06:22:48;-6.40;99.90
15257;DHT22;7731;50.720;6.912;2022-12-15T06:25:18;-6.40;99.90
15257;DHT22;7731;50.720;6.912;2022-12-15T06:27:48;-6.40;99.90
15257;DHT22;7731;50.720;6.912;2022-12-15T06:30:25;-6.30;99.90
15257;DHT22;7731;50.720;6.912;2022-12-15T06:32:56;-6.40;99.90
15257;DHT22;7731;50.720;6.912;2022-12-15T06:35:26;-6.40;99.90
15257;DHT22;7731;50.720;6.912;2022-12-15T06:38:01;-6.20;99.90
15257;DHT22;7731;50.720;6.912;2022-12-15T06:40:31;-6.30;99.90
15257;DHT22;7731;50.720;6.912;2022-12-15T06:43:04;-6.40;99.90
15257;DHT22;7731;50.720;6.912;2022-12-15T06:45:35;-6.30;99.90
15257;DHT22;7731;50.720;6.912;2022-12-15T06:48:07;-6.30;99.90
15257;DHT22;7731;50.720;6.912;2022-12-15T06:50:37;-6.20;99.90
15257;DHT22;7731;50.720;6.912;2022-12-15T06:53:10;-6.10;99.90
15257;DHT22;7731;50.720;6.912;2022-12-15T06:55:41;-6.10;99.90
15257;DHT22;7731;50.720;6.912;2022-12-15T06:58:12;-6.10;99.90
15257;DHT22;7731;50.720;6.912;2022-12-15T07:00:45;-6.10;99.90
15257;DHT22;7731;50.720;6.912;2022-12-15T07:03:17;-6.20;99.90
15257;DHT22;7731;50.720;6.912;2022-12-15T07:06:01;-6.20;99.90
15257;DHT22;7731;50.720;6.912;2022-12-15T07:08:35;-6.20;99.90
15257;DHT22;7731;50.720;6.912;2022-12-15T07:11:09;-6.30;99.90
15257;DHT22;7731;50.720;6.912;2022-12-15T07:13:41;-6.30;99.90
15257;DHT22;7731;50.720;6.912;2022-12-15T07:16:11;-6.30;99.90
15257;DHT22;7731;50.720;6.912;2022-12-15T07:18:44;-6.30;99.90
15257;DHT22;7731;50.720;6.912;2022-12-15T07:21:14;-6.30;99.90
15257;DHT22;7731;50.720;6.912;2022-12-15T07:23:46;-6.20;99.90
15257;DHT22;7731;50.720;6.912;2022-12-15T07:26:23;-6.10;99.90
15257;DHT22;7731;50.720;6.912;2022-12-15T07:28:53;-6.10;99.90
15257;DHT22;7731;50.720;6.912;2022-12-15T07:31:23;-6.20;99.90
15257;DHT22;7731;50.720;6.912;2022-12-15T07:33:54;-6.20;99.90
15257;DHT22;7731;50.720;6.912;2022-12-15T07:36:26;-6.20;99.90
15257;DHT22;7731;50.720;6.912;2022-12-15T07:39:05;-6.20;99.90
15257;DHT22;7731;50.720;6.912;2022-12-15T07:41:37;-6.10;99.90
15257;DHT22;7731;50.720;6.912;2022-12-15T07:44:07;-6.00;99.90
15257;DHT22;7731;50.720;6.912;2022-12-15T07:46:40;-6.20;99.90
15257;DHT22;7731;50.720;6.912;2022-12-15T07:49:14;-6.10;99.90
15257;DHT22;7731;50.720;6.912;2022-12-15T07:51:44;-6.10;99.90
15257;DHT22;7731;50.720;6.912;2022-12-15T07:54:17;-6.00;99.90
15257;DHT22;7731;50.720;6.912;2022-12-15T07:56:47;-5.80;99.90
15257;DHT22;7731;50.720;6.912;2022-12-15T07:59:18;-5.50;99.90
15257;DHT22;7731;50.720;6.912;2022-12-15T08:01:49;-5.60;99.90
15257;DHT22;7731;50.720;6.912;2022-12-15T08:04:20;-5.70;99.90
15257;DHT22;7731;50.720;6.912;2022-12-15T08:06:51;-5.60;99.90
15257;DHT22;7731;50.720;6.912;2022-12-15T08:09:25;-5.60;99.90
15257;DHT22;7731;50.720;6.912;2022-12-15T08:11:55;-5.60;99.90
15257;DHT22;7731;50.720;6.912;2022-12-15T08:14:25;-5.60;99.90
15257;DHT22;7731;50.720;6.912;2022-12-15T08:16:56;-5.50;99.90
15257;DHT22;7731;50.720;6.912;2022-12-15T08:19:26;-5.30;99.90
15257;DHT22;7731;50.720;6.912;2022-12-15T08:21:56;-5.30;99.90
15257;DHT22;7731;50.720;6.912;2022-12-15T08:24:29;-5.20;99.90
15257;DHT22;7731;50.720;6.912;2022-12-15T08:26:59;-5.00;99.90
15257;DHT22;7731;50.720;6.912;2022-12-15T08:29:29;-4.90;99.90
15257;DHT22;7731;50.720;6.912;2022-12-15T08:32:17;-4.80;99.90
15257;DHT22;7731;50.720;6.912;2022-12-15T08:34:49;-4.70;99.90
15257;DHT22;7731;50.720;6.912;2022-12-15T08:37:19;-4.70;99.90
15257;DHT22;7731;50.720;6.912;2022-12-15T08:39:52;-4.70;99.90
15257;DHT22;7731;50.720;6.912;2022-12-15T08:42:22;-4.50;99.90
15257;DHT22;7731;50.720;6.912;2022-12-15T08:44:52;-4.40;99.90
15257;DHT22;7731;50.720;6.912;2022-12-15T08:47:22;-4.10;99.90
15257;DHT22;7731;50.720;6.912;2022-12-15T08:49:52;-4.00;99.90
15257;DHT22;7731;50.720;6.912;2022-12-15T08:52:25;-3.90;99.90
15257;DHT22;7731;50.720;6.912;2022-12-15T08:54:58;-3.80;99.90
15257;DHT22;7731;50.720;6.912;2022-12-15T08:57:28;-3.60;99.90
15257;DHT22;7731;50.720;6.912;2022-12-15T09:00:00;-3.60;99.90
15257;DHT22;7731;50.720;6.912;2022-12-15T09:02:33;-3.20;99.90
15257;DHT22;7731;50.720;6.912;2022-12-15T09:05:06;-2.90;99.90
15257;DHT22;7731;50.720;6.912;2022-12-15T09:07:38;-2.80;99.90
15257;DHT22;7731;50.720;6.912;2022-12-15T09:10:11;-2.60;99.90
15257;DHT22;7731;50.720;6.912;2022-12-15T09:12:41;-2.50;99.90
15257;DHT22;7731;50.720;6.912;2022-12-15T09:15:14;-1.80;99.90
15257;DHT22;7731;50.720;6.912;2022-12-15T09:17:45;-0.20;99.90
15257;DHT22;7731;50.720;6.912;2022-12-15T09:20:15;1.30;43.00
15257;DHT22;7731;50.720;6.912;2022-12-15T09:22:45;2.10;1.00
15257;DHT22;7731;50.720;6.912;2022-12-15T09:25:20;2.60;1.00
15257;DHT22;7731;50.720;6.912;2022-12-15T09:27:50;3.00;1.00
15257;DHT22;7731;50.720;6.912;2022-12-15T09:30:27;3.20;1.00
15257;DHT22;7731;50.720;6.912;2022-12-15T09:32:58;3.40;1.00
15257;DHT22;7731;50.720;6.912;2022-12-15T09:35:28;3.50;99.90
15257;DHT22;7731;50.720;6.912;2022-12-15T09:37:58;3.40;1.00
15257;DHT22;7731;50.720;6.912;2022-12-15T09:40:31;3.70;1.00
15257;DHT22;7731;50.720;6.912;2022-12-15T09:43:01;3.90;1.00
15257;DHT22;7731;50.720;6.912;2022-12-15T09:45:58;4.70;99.90
15257;DHT22;7731;50.720;6.912;2022-12-15T09:48:39;5.40;1.00
15257;DHT22;7731;50.720;6.912;2022-12-15T09:51:16;5.30;1.00
15257;DHT22;7731;50.720;6.912;2022-12-15T09:53:54;5.00;1.00
15257;DHT22;7731;50.720;6.912;2022-12-15T09:56:36;5.00;99.90
15257;DHT22;7731;50.720;6.912;2022-12-15T09:59:25;4.80;1.00
15257;DHT22;7731;50.720;6.912;2022-12-15T10:02:18;5.20;1.00
15257;DHT22;7731;50.720;6.912;2022-12-15T10:05:10;5.10;1.00
15257;DHT22;7731;50.720;6.912;2022-12-15T10:07:46;5.40;90.90
15257;DHT22;7731;50.720;6.912;2022-12-15T10:10:24;6.60;1.00
15257;DHT22;7731;50.720;6.912;2022-12-15T10:13:08;5.10;1.00
15257;DHT22;7731;50.720;6.912;2022-12-15T10:15:48;5.80;99.90
15257;DHT22;7731;50.720;6.912;2022-12-15T10:18:23;6.10;1.00
15257;DHT22;7731;50.720;6.912;2022-12-15T10:20:58;5.60;1.00
15257;DHT22;7731;50.720;6.912;2022-12-15T10:23:33;5.50;1.00
15257;DHT22;7731;50.720;6.912;2022-12-15T10:26:17;4.70;99.90
15257;DHT22;7731;50.720;6.912;2022-12-15T10:29:05;5.20;99.90
15257;DHT22;7731;50.720;6.912;2022-12-15T10:31:56;5.90;1.00
15257;DHT22;7731;50.720;6.912;2022-12-15T10:34:34;5.70;1.00
15257;DHT22;7731;50.720;6.912;2022-12-15T10:37:09;5.50;99.90
15257;DHT22;7731;50.720;6.912;2022-12-15T10:39:45;5.00;1.00
15257;DHT22;7731;50.720;6.912;2022-12-15T10:42:19;4.30;1.00
15257;DHT22;7731;50.720;6.912;2022-12-15T10:44:55;4.70;1.00
15257;DHT22;7731;50.720;6.912;2022-12-15T10:47:28;5.70;1.00
15257;DHT22;7731;50.720;6.912;2022-12-15T10:50:16;5.20;99.90
15257;DHT22;7731;50.720;6.912;2022-12-15T10:52:51;5.20;23.40
15257;DHT22;7731;50.720;6.912;2022-12-15T10:55:32;4.50;1.00
15257;DHT22;7731;50.720;6.912;2022-12-15T10:58:16;4.60;1.00
15257;DHT22;7731;50.720;6.912;2022-12-15T11:01:05;5.40;99.90
15257;DHT22;7731;50.720;6.912;2022-12-15T11:03:37;5.00;99.90
15257;DHT22;7731;50.720;6.912;2022-12-15T11:06:14;4.70;1.00
15257;DHT22;7731;50.720;6.912;2022-12-15T11:08:53;4.90;99.90
15257;DHT22;7731;50.720;6.912;2022-12-15T11:11:28;4.20;1.00
15257;DHT22;7731;50.720;6.912;2022-12-15T11:14:15;4.00;1.00
15257;DHT22;7731;50.720;6.912;2022-12-15T11:16:54;3.80;1.00
15257;DHT22;7731;50.720;6.912;2022-12-15T11:19:32;4.60;1.00
15257;DHT22;7731;50.720;6.912;2022-12-15T11:22:14;4.80;1.00
15257;DHT22;7731;50.720;6.912;2022-12-15T11:24:51;4.40;1.00
15257;DHT22;7731;50.720;6.912;2022-12-15T11:27:29;4.70;1.00
15257;DHT22;7731;50.720;6.912;2022-12-15T11:30:11;4.50;1.00
15257;DHT22;7731;50.720;6.912;2022-12-15T11:32:47;4.80;1.00
15257;DHT22;7731;50.720;6.912;2022-12-15T11:35:26;4.70;99.90
15257;DHT22;7731;50.720;6.912;2022-12-15T11:38:10;4.10;1.00
15257;DHT22;7731;50.720;6.912;2022-12-15T11:40:49;3.90;1.00
15257;DHT22;7731;50.720;6.912;2022-12-15T11:43:34;3.50;1.00
15257;DHT22;7731;50.720;6.912;2022-12-15T11:46:28;3.00;1.00
15257;DHT22;7731;50.720;6.912;2022-12-15T11:49:27;3.10;1.00
15257;DHT22;7731;50.720;6.912;2022-12-15T11:52:40;2.80;1.00
15257;DHT22;7731;50.720;6.912;2022-12-15T11:55:23;2.90;1.00
15257;DHT22;7731;50.720;6.912;2022-12-15T11:58:30;2.30;15.90
15257;DHT22;7731;50.720;6.912;2022-12-15T12:01:29;1.70;41.30
15257;DHT22;7731;50.720;6.912;2022-12-15T12:04:38;1.30;68.40
15257;DHT22;7731;50.720;6.912;2022-12-15T12:07:24;1.60;56.30
15257;DHT22;7731;50.720;6.912;2022-12-15T12:10:21;1.20;91.60
15257;DHT22;7731;50.720;6.912;2022-12-15T12:13:03;1.20;99.90
15257;DHT22;7731;50.720;6.912;2022-12-15T12:15:52;1.30;99.90
15257;DHT22;7731;50.720;6.912;2022-12-15T12:18:31;1.90;47.10
15257;DHT22;7731;50.720;6.912;2022-12-15T12:21:09;1.90;53.80
15257;DHT22;7731;50.720;6.912;2022-12-15T12:23:48;2.00;51.00
15257;DHT22;7731;50.720;6.912;2022-12-15T12:26:27;2.00;44.70
15257;DHT22;7731;50.720;6.912;2022-12-15T12:29:10;1.90;32.70
15257;DHT22;7731;50.720;6.912;2022-12-15T12:31:54;1.70;20.80
15257;DHT22;7731;50.720;6.912;2022-12-15T12:34:37;1.60;20.60
15257;DHT22;7731;50.720;6.912;2022-12-15T12:37:48;1.40;51.70
15257;DHT22;7731;50.720;6.912;2022-12-15T12:40:39;1.10;68.40
15257;DHT22;7731;50.720;6.912;2022-12-15T12:43:31;0.90;93.60
15257;DHT22;7731;50.720;6.912;2022-12-15T12:46:08;0.90;66.70
15257;DHT22;7731;50.720;6.912;2022-12-15T12:48:47;1.10;50.90
15257;DHT22;7731;50.720;6.912;2022-12-15T12:51:25;1.10;51.80
15257;DHT22;7731;50.720;6.912;2022-12-15T12:54:01;0.80;86.30
15257;DHT22;7731;50.720;6.912;2022-12-15T12:56:41;0.80;85.70
15257;DHT22;7731;50.720;6.912;2022-12-15T12:59:32;0.80;90.90
15257;DHT22;7731;50.720;6.912;2022-12-15T13:05:27;0.50;99.90
15257;DHT22;7731;50.720;6.912;2022-12-15T13:08:16;0.20;99.90
15257;DHT22;7731;50.720;6.912;2022-12-15T13:14:34;0.00;99.90
15257;DHT22;7731;50.720;6.912;2022-12-15T13:17:26;-0.10;99.90
15257;DHT22;7731;50.720;6.912;2022-12-15T13:20:22;-0.10;99.90
15257;DHT22;7731;50.720;6.912;2022-12-15T13:26:17;0.00;99.90
15257;DHT22;7731;50.720;6.912;2022-12-15T13:28:50;-0.10;99.90
15257;DHT22;7731;50.720;6.912;2022-12-15T13:31:31;-0.10;99.90
15257;DHT22;7731;50.720;6.912;2022-12-15T13:34:14;-0.10;99.90
15257;DHT22;7731;50.720;6.912;2022-12-15T13:36:57;-0.20;99.90
15257;DHT22;7731;50.720;6.912;2022-12-15T13:39:50;-0.40;99.90
15257;DHT22;7731;50.720;6.912;2022-12-15T13:42:35;-0.30;99.90
15257;DHT22;7731;50.720;6.912;2022-12-15T13:45:36;-0.30;99.90
15257;DHT22;7731;50.720;6.912;2022-12-15T13:48:24;-0.40;99.90
15257;DHT22;7731;50.720;6.912;2022-12-15T13:51:09;-0.50;99.90
15257;DHT22;7731;50.720;6.912;2022-12-15T13:53:54;-0.40;99.90
15257;DHT22;7731;50.720;6.912;2022-12-15T13:56:54;-0.50;99.90
15257;DHT22;7731;50.720;6.912;2022-12-15T13:59:47;-0.60;99.90
15257;DHT22;7731;50.720;6.912;2022-12-15T14:02:25;-0.60;99.90
15257;DHT22;7731;50.720;6.912;2022-12-15T14:05:12;-0.60;99.90
15257;DHT22;7731;50.720;6.912;2022-12-15T14:07:48;-0.70;99.90
15257;DHT22;7731;50.720;6.912;2022-12-15T14:10:28;-0.70;99.90
15257;DHT22;7731;50.720;6.912;2022-12-15T14:13:10;-0.80;99.90
15257;DHT22;7731;50.720;6.912;2022-12-15T14:15:51;-0.70;99.90
15257;DHT22;7731;50.720;6.912;2022-12-15T14:18:28;-0.70;99.90
15257;DHT22;7731;50.720;6.912;2022-12-15T14:21:03;-0.90;99.90
15257;DHT22;7731;50.720;6.912;2022-12-15T14:23:40;-1.00;99.90
15257;DHT22;7731;50.720;6.912;2022-12-15T14:26:32;-0.90;99.90
15257;DHT22;7731;50.720;6.912;2022-12-15T14:29:04;-0.80;99.90
15257;DHT22;7731;50.720;6.912;2022-12-15T14:31:37;-1.00;99.90
15257;DHT22;7731;50.720;6.912;2022-12-15T14:34:12;-1.20;99.90
15257;DHT22;7731;50.720;6.912;2022-12-15T14:36:47;-1.30;99.90
15257;DHT22;7731;50.720;6.912;2022-12-15T14:39:23;-1.20;99.90
15257;DHT22;7731;50.720;6.912;2022-12-15T14:41:57;-1.20;99.90
15257;DHT22;7731;50.720;6.912;2022-12-15T14:44:32;-1.40;99.90
15257;DHT22;7731;50.720;6.912;2022-12-15T14:47:18;-1.40;99.90
15257;DHT22;7731;50.720;6.912;2022-12-15T14:49:53;-1.60;99.90
15257;DHT22;7731;50.720;6.912;2022-12-15T14:52:29;-1.50;99.90
15257;DHT22;7731;50.720;6.912;2022-12-15T14:55:25;-1.70;99.90
15257;DHT22;7731;50.720;6.912;2022-12-15T14:58:00;-1.70;99.90
15257;DHT22;7731;50.720;6.912;2022-12-15T15:00:47;-1.70;99.90
15257;DHT22;7731;50.720;6.912;2022-12-15T15:03:33;-1.80;99.90
15257;DHT22;7731;50.720;6.912;2022-12-15T15:06:14;-1.90;99.90
15257;DHT22;7731;50.720;6.912;2022-12-15T15:08:48;-1.90;99.90
15257;DHT22;7731;50.720;6.912;2022-12-15T15:11:24;-2.00;99.90
15257;DHT22;7731;50.720;6.912;2022-12-15T15:14:06;-2.10;99.90
15257;DHT22;7731;50.720;6.912;2022-12-15T15:16:40;-2.10;99.90
15257;DHT22;7731;50.720;6.912;2022-12-15T15:19:20;-2.20;99.90
15257;DHT22;7731;50.720;6.912;2022-12-15T15:21:51;-2.10;99.90
15257;DHT22;7731;50.720;6.912;2022-12-15T15:24:28;-2.20;99.90
15257;DHT22;7731;50.720;6.912;2022-12-15T15:27:26;-2.20;99.90
15257;DHT22;7731;50.720;6.912;2022-12-15T15:30:14;-2.20;99.90
15257;DHT22;7731;50.720;6.912;2022-12-15T15:32:51;-2.30;99.90
15257;DHT22;7731;50.720;6.912;2022-12-15T15:35:30;-2.40;99.90
15257;DHT22;7731;50.720;6.912;2022-12-15T15:38:06;-2.50;99.90
15257;DHT22;7731;50.720;6.912;2022-12-15T15:40:53;-2.50;99.90
15257;DHT22;7731;50.720;6.912;2022-12-15T15:43:46;-2.50;99.90
15257;DHT22;7731;50.720;6.912;2022-12-15T15:46:18;-2.60;99.90
15257;DHT22;7731;50.720;6.912;2022-12-15T15:48:53;-2.70;99.90
15257;DHT22;7731;50.720;6.912;2022-12-15T15:51:28;-2.80;99.90
15257;DHT22;7731;50.720;6.912;2022-12-15T15:54:05;-2.90;99.90
15257;DHT22;7731;50.720;6.912;2022-12-15T15:56:39;-2.90;99.90
15257;DHT22;7731;50.720;6.912;2022-12-15T15:59:12;-2.90;99.90
15257;DHT22;7731;50.720;6.912;2022-12-15T16:01:44;-2.90;99.90
15257;DHT22;7731;50.720;6.912;2022-12-15T16:04:16;-3.00;99.90
15257;DHT22;7731;50.720;6.912;2022-12-15T16:06:50;-2.90;99.90
15257;DHT22;7731;50.720;6.912;2022-12-15T16:09:22;-2.90;99.90
15257;DHT22;7731;50.720;6.912;2022-12-15T16:11:55;-2.90;99.90
15257;DHT22;7731;50.720;6.912;2022-12-15T16:14:26;-3.00;99.90
15257;DHT22;7731;50.720;6.912;2022-12-15T16:16:56;-3.10;99.90
15257;DHT22;7731;50.720;6.912;2022-12-15T16:19:26;-3.10;99.90
15257;DHT22;7731;50.720;6.912;2022-12-15T16:22:08;-3.10;99.90
15257;DHT22;7731;50.720;6.912;2022-12-15T16:24:42;-3.30;99.90
15257;DHT22;7731;50.720;6.912;2022-12-15T16:27:13;-3.40;99.90
15257;DHT22;7731;50.720;6.912;2022-12-15T16:29:44;-3.40;99.90
15257;DHT22;7731;50.720;6.912;2022-12-15T16:32:14;-3.40;99.90
15257;DHT22;7731;50.720;6.912;2022-12-15T16:34:44;-3.50;99.90
15257;DHT22;7731;50.720;6.912;2022-12-15T16:37:23;-3.50;99.90
15257;DHT22;7731;50.720;6.912;2022-12-15T16:39:54;-3.50;99.90
15257;DHT22;7731;50.720;6.912;2022-12-15T16:42:24;-3.50;99.90
15257;DHT22;7731;50.720;6.912;2022-12-15T16:44:54;-3.50;99.90
15257;DHT22;7731;50.720;6.912;2022-12-15T16:47:26;-3.40;99.90
15257;DHT22;7731;50.720;6.912;2022-12-15T16:49:56;-3.40;99.90
15257;DHT22;7731;50.720;6.912;2022-12-15T16:52:28;-3.50;99.90
15257;DHT22;7731;50.720;6.912;2022-12-15T16:54:59;-3.50;99.90
15257;DHT22;7731;50.720;6.912;2022-12-15T16:57:29;-3.60;99.90
15257;DHT22;7731;50.720;6.912;2022-12-15T17:00:01;-3.70;99.90
15257;DHT22;7731;50.720;6.912;2022-12-15T17:02:39;-3.80;99.90
15257;DHT22;7731;50.720;6.912;2022-12-15T17:05:12;-3.90;99.90
15257;DHT22;7731;50.720;6.912;2022-12-15T17:07:49;-3.90;99.90
15257;DHT22;7731;50.720;6.912;2022-12-15T17:10:24;-3.60;99.90
15257;DHT22;7731;50.720;6.912;2022-12-15T17:13:01;-3.40;99.90
15257;DHT22;7731;50.720;6.912;2022-12-15T17:15:35;-3.30;99.90